AAL715 KPHX-KLAX
Flight info
| Callsign | AAL715 |
|---|---|
| Flight time | 0h 57m |
| Altitude | 30000 |
| Route | KEENS3 WLVRN ESTWD HLYWD1 |
| Aircraft | A320/M-SDE3FGHIRWY/LB1 |
Departure
| Time | 2026-04-23 00:36 |
|---|---|
| Airport | Phoenix Sky Harbor International Airport (KPHX) |
Arrival
| Time | 2026-04-23 01:33 |
|---|---|
| Airport | Los Angeles International Airport (KLAX) |
| Time | Latitude | Longitude | Altitude | Speed | Heading |
|---|---|---|---|---|---|
| 2026-04-23 00:20 | 33.43342 | -111.99942 | 1120 ft | 0 kts | 359° |
| 2026-04-23 00:30 | 33.43319 | -111.99943 | 1117 ft | 4 kts | 10° |
| 2026-04-23 00:30 | 33.43294 | -111.99953 | 1116 ft | 4 kts | 39° |
| 2026-04-23 00:30 | 33.43283 | -111.99973 | 1114 ft | 1 kts | 90° |
| 2026-04-23 00:30 | 33.43283 | -111.99979 | 1119 ft | 0 kts | 90° |
| 2026-04-23 00:32 | 33.43283 | -111.99962 | 1114 ft | 4 kts | 90° |
| 2026-04-23 00:32 | 33.43283 | -111.99910 | 1119 ft | 8 kts | 90° |
| 2026-04-23 00:33 | 33.43282 | -111.99864 | 1124 ft | 9 kts | 90° |
| 2026-04-23 00:33 | 33.43283 | -111.99781 | 1121 ft | 11 kts | 89° |
| 2026-04-23 00:33 | 33.43284 | -111.99683 | 1124 ft | 13 kts | 89° |
| 2026-04-23 00:33 | 33.43283 | -111.99531 | 1120 ft | 15 kts | 90° |
| 2026-04-23 00:34 | 33.43283 | -111.99402 | 1124 ft | 15 kts | 90° |
| 2026-04-23 00:34 | 33.43264 | -111.99344 | 1117 ft | 10 kts | 158° |
| 2026-04-23 00:34 | 33.43184 | -111.99344 | 1120 ft | 13 kts | 180° |
| 2026-04-23 00:34 | 33.43103 | -111.99356 | 1122 ft | 10 kts | 229° |
| 2026-04-23 00:35 | 33.43103 | -111.99445 | 1118 ft | 12 kts | 276° |
| 2026-04-23 00:35 | 33.43104 | -111.99491 | 1123 ft | 7 kts | 270° |
| 2026-04-23 00:35 | 33.43103 | -111.99675 | 1124 ft | 45 kts | 270° |
| 2026-04-23 00:35 | 33.43105 | -112.00313 | 1125 ft | 106 kts | 270° |
| 2026-04-23 00:36 | 33.43107 | -112.01390 | 1124 ft | 151 kts | 270° |
| 2026-04-23 00:36 | 33.43111 | -112.02713 | 1525 ft | 158 kts | 269° |
| 2026-04-23 00:36 | 33.43049 | -112.04054 | 2069 ft | 161 kts | 263° |
| 2026-04-23 00:36 | 33.42964 | -112.05385 | 2676 ft | 164 kts | 266° |
| 2026-04-23 00:37 | 33.42885 | -112.06838 | 2909 ft | 186 kts | 265° |
| 2026-04-23 00:37 | 33.42605 | -112.08448 | 3165 ft | 211 kts | 249° |
| 2026-04-23 00:37 | 33.42033 | -112.10172 | 3510 ft | 235 kts | 249° |
| 2026-04-23 00:37 | 33.41427 | -112.12073 | 4084 ft | 250 kts | 249° |
| 2026-04-23 00:38 | 33.40809 | -112.14041 | 4886 ft | 256 kts | 249° |
| 2026-04-23 00:38 | 33.40181 | -112.16052 | 5802 ft | 258 kts | 249° |
| 2026-04-23 00:38 | 33.39561 | -112.18070 | 6688 ft | 260 kts | 252° |
| 2026-04-23 00:38 | 33.39247 | -112.20212 | 7539 ft | 264 kts | 267° |
| 2026-04-23 00:39 | 33.39437 | -112.22416 | 8385 ft | 269 kts | 278° |
| 2026-04-23 00:39 | 33.39776 | -112.24633 | 9220 ft | 272 kts | 278° |
| 2026-04-23 00:39 | 33.40111 | -112.26848 | 10013 ft | 276 kts | 278° |
| 2026-04-23 00:39 | 33.40458 | -112.29170 | 10411 ft | 294 kts | 278° |
| 2026-04-23 00:40 | 33.40827 | -112.31677 | 10601 ft | 317 kts | 278° |
| 2026-04-23 00:40 | 33.41222 | -112.34371 | 10734 ft | 340 kts | 278° |
| 2026-04-23 00:40 | 33.41646 | -112.37237 | 11038 ft | 355 kts | 278° |
| 2026-04-23 00:40 | 33.42081 | -112.40168 | 11643 ft | 360 kts | 278° |
| 2026-04-23 00:41 | 33.42521 | -112.43130 | 12308 ft | 363 kts | 278° |
| 2026-04-23 00:41 | 33.42963 | -112.46111 | 12992 ft | 365 kts | 278° |
| 2026-04-23 00:41 | 33.43407 | -112.49119 | 13662 ft | 367 kts | 278° |
| 2026-04-23 00:41 | 33.43851 | -112.52142 | 14256 ft | 370 kts | 278° |
| 2026-04-23 00:42 | 33.44294 | -112.55180 | 14875 ft | 371 kts | 278° |
| 2026-04-23 00:42 | 33.44742 | -112.58235 | 15494 ft | 373 kts | 278° |
| 2026-04-23 00:42 | 33.45039 | -112.61314 | 16123 ft | 373 kts | 270° |
| 2026-04-23 00:42 | 33.45083 | -112.64428 | 16757 ft | 375 kts | 269° |
| 2026-04-23 00:43 | 33.45123 | -112.67558 | 17392 ft | 376 kts | 269° |
| 2026-04-23 00:43 | 33.45161 | -112.70694 | 18022 ft | 378 kts | 269° |
| 2026-04-23 00:43 | 33.45197 | -112.73850 | 18593 ft | 380 kts | 269° |
| 2026-04-23 00:43 | 33.45237 | -112.76980 | 19112 ft | 382 kts | 270° |
| 2026-04-23 00:44 | 33.45562 | -112.80155 | 19606 ft | 387 kts | 280° |
| 2026-04-23 00:44 | 33.46395 | -112.83240 | 20106 ft | 393 kts | 289° |
| 2026-04-23 00:44 | 33.47470 | -112.86258 | 20590 ft | 395 kts | 289° |
| 2026-04-23 00:44 | 33.48547 | -112.89299 | 21035 ft | 397 kts | 289° |
| 2026-04-23 00:45 | 33.49622 | -112.92352 | 21465 ft | 399 kts | 289° |
| 2026-04-23 00:45 | 33.50701 | -112.95436 | 21875 ft | 401 kts | 289° |
| 2026-04-23 00:45 | 33.51781 | -112.98530 | 22274 ft | 403 kts | 289° |
| 2026-04-23 00:45 | 33.52865 | -113.01642 | 22664 ft | 405 kts | 289° |
| 2026-04-23 00:46 | 33.53953 | -113.04770 | 23091 ft | 407 kts | 289° |
| 2026-04-23 00:46 | 33.55043 | -113.07905 | 23430 ft | 407 kts | 289° |
| 2026-04-23 00:46 | 33.56123 | -113.11009 | 23723 ft | 410 kts | 289° |
| 2026-04-23 00:46 | 33.57220 | -113.14163 | 24050 ft | 411 kts | 289° |
| 2026-04-23 00:47 | 33.58325 | -113.17337 | 24375 ft | 413 kts | 289° |
| 2026-04-23 00:47 | 33.59434 | -113.20519 | 24693 ft | 414 kts | 289° |
| 2026-04-23 00:47 | 33.60545 | -113.23719 | 25010 ft | 416 kts | 289° |
| 2026-04-23 00:47 | 33.61660 | -113.26936 | 25322 ft | 417 kts | 289° |
| 2026-04-23 00:48 | 33.62775 | -113.30156 | 25613 ft | 419 kts | 289° |
| 2026-04-23 00:48 | 33.63895 | -113.33394 | 25924 ft | 420 kts | 289° |
| 2026-04-23 00:48 | 33.65011 | -113.36629 | 26358 ft | 418 kts | 289° |
| 2026-04-23 00:48 | 33.66119 | -113.39848 | 26802 ft | 417 kts | 289° |
| 2026-04-23 00:49 | 33.67222 | -113.43057 | 27236 ft | 415 kts | 289° |
| 2026-04-23 00:49 | 33.68320 | -113.46257 | 27812 ft | 414 kts | 289° |
| 2026-04-23 00:49 | 33.69414 | -113.49442 | 28276 ft | 412 kts | 289° |
| 2026-04-23 00:49 | 33.70506 | -113.52615 | 28734 ft | 411 kts | 289° |
| 2026-04-23 00:50 | 33.71597 | -113.55779 | 29202 ft | 409 kts | 289° |
| 2026-04-23 00:50 | 33.72685 | -113.58935 | 29679 ft | 408 kts | 289° |
| 2026-04-23 00:50 | 33.73767 | -113.62085 | 30000 ft | 408 kts | 289° |
| 2026-04-23 00:51 | 33.75948 | -113.68464 | 29944 ft | 417 kts | 289° |
| 2026-04-23 00:51 | 33.78135 | -113.74885 | 29947 ft | 418 kts | 289° |
| 2026-04-23 00:52 | 33.80339 | -113.81348 | 29948 ft | 417 kts | 289° |
| 2026-04-23 00:52 | 33.82540 | -113.87803 | 29950 ft | 417 kts | 289° |
| 2026-04-23 00:53 | 33.84739 | -113.94271 | 29970 ft | 418 kts | 289° |
| 2026-04-23 00:53 | 33.86927 | -114.00739 | 29960 ft | 418 kts | 289° |
| 2026-04-23 00:54 | 33.89118 | -114.07220 | 29937 ft | 418 kts | 289° |
| 2026-04-23 00:54 | 33.90945 | -114.13824 | 29939 ft | 414 kts | 279° |
| 2026-04-23 00:55 | 33.92100 | -114.20618 | 29942 ft | 414 kts | 279° |
| 2026-04-23 00:55 | 33.93249 | -114.27416 | 29943 ft | 414 kts | 279° |
| 2026-04-23 00:56 | 33.94385 | -114.34173 | 29933 ft | 414 kts | 279° |
| 2026-04-23 00:56 | 33.95537 | -114.40976 | 29935 ft | 414 kts | 279° |
| 2026-04-23 00:57 | 33.96680 | -114.47769 | 29964 ft | 414 kts | 279° |
| 2026-04-23 00:57 | 33.97820 | -114.54570 | 29958 ft | 413 kts | 279° |
| 2026-04-23 00:58 | 33.98950 | -114.61365 | 29951 ft | 413 kts | 279° |
| 2026-04-23 00:58 | 34.00068 | -114.68097 | 29938 ft | 410 kts | 279° |
| 2026-04-23 00:59 | 34.01193 | -114.74863 | 29937 ft | 412 kts | 279° |
| 2026-04-23 00:59 | 34.02314 | -114.81648 | 29942 ft | 412 kts | 279° |
| 2026-04-23 01:00 | 34.03430 | -114.88428 | 29940 ft | 412 kts | 279° |
| 2026-04-23 01:00 | 34.04534 | -114.95210 | 29944 ft | 412 kts | 279° |
| 2026-04-23 01:01 | 34.05639 | -115.02000 | 29946 ft | 412 kts | 279° |
| 2026-04-23 01:01 | 34.06752 | -115.08777 | 29971 ft | 412 kts | 279° |
| 2026-04-23 01:02 | 34.07851 | -115.15544 | 29974 ft | 411 kts | 279° |
| 2026-04-23 01:02 | 34.08941 | -115.22294 | 29962 ft | 408 kts | 279° |
| 2026-04-23 01:03 | 34.10036 | -115.28921 | 29956 ft | 402 kts | 279° |
| 2026-04-23 01:03 | 34.11106 | -115.35628 | 29945 ft | 410 kts | 279° |
| 2026-04-23 01:04 | 34.12166 | -115.42361 | 29947 ft | 412 kts | 279° |
| 2026-04-23 01:04 | 34.13789 | -115.52538 | 29955 ft | 412 kts | 279° |
| 2026-04-23 01:05 | 34.14869 | -115.59324 | 29946 ft | 411 kts | 279° |
| 2026-04-23 01:05 | 34.15936 | -115.66106 | 29970 ft | 411 kts | 278° |
| 2026-04-23 01:06 | 34.16001 | -115.72946 | 29973 ft | 409 kts | 264° |
| 2026-04-23 01:06 | 34.15341 | -115.79759 | 30003 ft | 408 kts | 264° |
| 2026-04-23 01:07 | 34.14691 | -115.86560 | 30014 ft | 408 kts | 264° |
| 2026-04-23 01:07 | 34.14025 | -115.93370 | 30026 ft | 408 kts | 264° |
| 2026-04-23 01:08 | 34.13355 | -116.00169 | 30048 ft | 408 kts | 264° |
| 2026-04-23 01:08 | 34.12692 | -116.06964 | 30054 ft | 407 kts | 264° |
| 2026-04-23 01:09 | 34.12361 | -116.10362 | 29807 ft | 408 kts | 264° |
| 2026-04-23 01:09 | 34.12029 | -116.13758 | 29532 ft | 408 kts | 264° |
| 2026-04-23 01:09 | 34.11693 | -116.17166 | 29255 ft | 408 kts | 264° |
| 2026-04-23 01:09 | 34.11356 | -116.20564 | 28984 ft | 409 kts | 264° |
| 2026-04-23 01:10 | 34.11014 | -116.23981 | 28710 ft | 410 kts | 263° |
| 2026-04-23 01:10 | 34.10674 | -116.27358 | 28366 ft | 412 kts | 264° |
| 2026-04-23 01:10 | 34.10328 | -116.30803 | 28101 ft | 414 kts | 264° |
| 2026-04-23 01:10 | 34.09973 | -116.34245 | 27839 ft | 415 kts | 263° |
| 2026-04-23 01:11 | 34.09607 | -116.37704 | 27581 ft | 416 kts | 263° |
| 2026-04-23 01:11 | 34.09235 | -116.41165 | 27323 ft | 416 kts | 263° |
| 2026-04-23 01:11 | 34.08857 | -116.44635 | 27069 ft | 417 kts | 263° |
| 2026-04-23 01:11 | 34.08474 | -116.48111 | 26819 ft | 418 kts | 263° |
| 2026-04-23 01:12 | 34.08091 | -116.51591 | 26572 ft | 416 kts | 263° |
| 2026-04-23 01:12 | 34.07718 | -116.54985 | 26318 ft | 400 kts | 263° |
| 2026-04-23 01:12 | 34.07364 | -116.58240 | 26073 ft | 385 kts | 263° |
| 2026-04-23 01:12 | 34.07035 | -116.61392 | 25830 ft | 372 kts | 264° |
| 2026-04-23 01:13 | 34.06749 | -116.64447 | 25605 ft | 362 kts | 264° |
| 2026-04-23 01:13 | 34.06488 | -116.67432 | 25365 ft | 356 kts | 264° |
| 2026-04-23 01:13 | 34.06229 | -116.70403 | 25129 ft | 354 kts | 265° |
| 2026-04-23 01:13 | 34.05971 | -116.73384 | 24900 ft | 366 kts | 265° |
| 2026-04-23 01:14 | 34.05706 | -116.76518 | 24685 ft | 385 kts | 265° |
| 2026-04-23 01:14 | 34.05436 | -116.79811 | 24458 ft | 403 kts | 265° |
| 2026-04-23 01:14 | 34.05161 | -116.83234 | 24225 ft | 417 kts | 265° |
| 2026-04-23 01:14 | 34.04850 | -116.86685 | 23994 ft | 406 kts | 263° |
| 2026-04-23 01:15 | 34.04476 | -116.89954 | 23785 ft | 389 kts | 262° |
| 2026-04-23 01:15 | 34.04058 | -116.93110 | 23557 ft | 374 kts | 261° |
| 2026-04-23 01:15 | 34.03632 | -116.96133 | 23333 ft | 356 kts | 261° |
| 2026-04-23 01:15 | 34.03224 | -116.99028 | 22766 ft | 346 kts | 262° |
| 2026-04-23 01:16 | 34.02834 | -117.01863 | 22088 ft | 341 kts | 262° |
| 2026-04-23 01:16 | 34.02463 | -117.04667 | 21386 ft | 337 kts | 262° |
| 2026-04-23 01:16 | 34.02122 | -117.07459 | 20915 ft | 335 kts | 263° |
| 2026-04-23 01:16 | 34.01796 | -117.10238 | 20393 ft | 334 kts | 263° |
| 2026-04-23 01:17 | 34.01478 | -117.12997 | 19969 ft | 331 kts | 263° |
| 2026-04-23 01:17 | 34.01160 | -117.15743 | 19488 ft | 329 kts | 263° |
| 2026-04-23 01:17 | 34.00842 | -117.18462 | 19032 ft | 326 kts | 263° |
| 2026-04-23 01:17 | 34.00525 | -117.21149 | 18628 ft | 323 kts | 263° |
| 2026-04-23 01:18 | 34.00208 | -117.23814 | 18154 ft | 320 kts | 263° |
| 2026-04-23 01:18 | 33.99891 | -117.26452 | 17695 ft | 317 kts | 263° |
| 2026-04-23 01:18 | 33.99576 | -117.29064 | 17316 ft | 309 kts | 263° |
| 2026-04-23 01:18 | 33.99270 | -117.31596 | 16840 ft | 302 kts | 263° |
| 2026-04-23 01:19 | 33.98971 | -117.34096 | 16437 ft | 301 kts | 264° |
| 2026-04-23 01:19 | 33.98679 | -117.36554 | 16030 ft | 300 kts | 264° |
| 2026-04-23 01:19 | 33.98386 | -117.39048 | 15619 ft | 299 kts | 264° |
| 2026-04-23 01:19 | 33.98097 | -117.41531 | 15213 ft | 298 kts | 264° |
| 2026-04-23 01:20 | 33.97809 | -117.44006 | 14803 ft | 298 kts | 264° |
| 2026-04-23 01:20 | 33.97520 | -117.46473 | 14398 ft | 296 kts | 264° |
| 2026-04-23 01:20 | 33.97330 | -117.48097 | 14126 ft | 296 kts | 265° |
| 2026-04-23 01:20 | 33.97216 | -117.50559 | 13671 ft | 294 kts | 271° |
| 2026-04-23 01:21 | 33.97188 | -117.53025 | 13182 ft | 294 kts | 270° |
| 2026-04-23 01:21 | 33.97160 | -117.55483 | 12746 ft | 293 kts | 270° |
| 2026-04-23 01:21 | 33.97131 | -117.57943 | 12285 ft | 293 kts | 270° |
| 2026-04-23 01:21 | 33.97101 | -117.60397 | 11824 ft | 293 kts | 270° |
| 2026-04-23 01:22 | 33.97071 | -117.62847 | 11366 ft | 293 kts | 270° |
| 2026-04-23 01:22 | 33.97040 | -117.65268 | 10913 ft | 293 kts | 270° |
| 2026-04-23 01:22 | 33.97006 | -117.67724 | 10456 ft | 293 kts | 270° |
| 2026-04-23 01:22 | 33.96970 | -117.70170 | 10178 ft | 288 kts | 270° |
| 2026-04-23 01:23 | 33.96935 | -117.72536 | 10061 ft | 276 kts | 270° |
| 2026-04-23 01:23 | 33.96902 | -117.74818 | 9861 ft | 269 kts | 270° |
| 2026-04-23 01:23 | 33.96870 | -117.77073 | 9501 ft | 270 kts | 270° |
| 2026-04-23 01:23 | 33.96839 | -117.79351 | 9046 ft | 273 kts | 270° |
| 2026-04-23 01:24 | 33.96807 | -117.81647 | 8619 ft | 275 kts | 270° |
| 2026-04-23 01:24 | 33.96774 | -117.83929 | 8172 ft | 273 kts | 270° |
| 2026-04-23 01:24 | 33.96740 | -117.86208 | 7647 ft | 271 kts | 270° |
| 2026-04-23 01:24 | 33.96705 | -117.88468 | 7125 ft | 270 kts | 269° |
| 2026-04-23 01:25 | 33.96670 | -117.90722 | 6637 ft | 268 kts | 269° |
| 2026-04-23 01:25 | 33.96636 | -117.92964 | 6140 ft | 267 kts | 269° |
| 2026-04-23 01:25 | 33.96601 | -117.95175 | 5667 ft | 263 kts | 270° |
| 2026-04-23 01:25 | 33.96565 | -117.97360 | 5203 ft | 257 kts | 271° |
| 2026-04-23 01:26 | 33.96532 | -117.99442 | 4764 ft | 252 kts | 270° |
| 2026-04-23 01:26 | 33.96501 | -118.01527 | 4381 ft | 244 kts | 270° |
| 2026-04-23 01:26 | 33.96471 | -118.03453 | 4323 ft | 222 kts | 269° |
| 2026-04-23 01:26 | 33.96442 | -118.05259 | 4266 ft | 214 kts | 269° |
| 2026-04-23 01:27 | 33.96412 | -118.07046 | 4182 ft | 212 kts | 270° |
| 2026-04-23 01:27 | 33.96381 | -118.08771 | 4092 ft | 200 kts | 270° |
| 2026-04-23 01:27 | 33.96352 | -118.10427 | 4018 ft | 197 kts | 269° |
| 2026-04-23 01:27 | 33.96368 | -118.12082 | 3934 ft | 197 kts | 274° |
| 2026-04-23 01:28 | 33.96368 | -118.13662 | 3881 ft | 181 kts | 267° |
| 2026-04-23 01:28 | 33.96268 | -118.15133 | 3798 ft | 170 kts | 265° |
| 2026-04-23 01:28 | 33.96143 | -118.16524 | 3624 ft | 164 kts | 264° |
| 2026-04-23 01:28 | 33.96013 | -118.17872 | 3436 ft | 159 kts | 265° |
| 2026-04-23 01:29 | 33.95885 | -118.19157 | 3252 ft | 148 kts | 265° |
| 2026-04-23 01:29 | 33.95765 | -118.20369 | 3054 ft | 144 kts | 263° |
| 2026-04-23 01:29 | 33.95647 | -118.21551 | 2860 ft | 142 kts | 263° |
| 2026-04-23 01:29 | 33.95530 | -118.22718 | 2685 ft | 137 kts | 264° |
| 2026-04-23 01:30 | 33.95417 | -118.23839 | 2492 ft | 134 kts | 264° |
| 2026-04-23 01:30 | 33.95307 | -118.24928 | 2336 ft | 131 kts | 264° |
| 2026-04-23 01:30 | 33.95198 | -118.26013 | 2141 ft | 130 kts | 264° |
| 2026-04-23 01:30 | 33.95089 | -118.27099 | 1968 ft | 131 kts | 263° |
| 2026-04-23 01:31 | 33.94979 | -118.28185 | 1789 ft | 131 kts | 263° |
| 2026-04-23 01:31 | 33.94869 | -118.29275 | 1615 ft | 132 kts | 263° |
| 2026-04-23 01:31 | 33.94758 | -118.30368 | 1438 ft | 131 kts | 262° |
| 2026-04-23 01:31 | 33.94649 | -118.31451 | 1264 ft | 129 kts | 262° |
| 2026-04-23 01:32 | 33.94539 | -118.32538 | 1090 ft | 133 kts | 263° |
| 2026-04-23 01:32 | 33.94426 | -118.33650 | 912 ft | 135 kts | 263° |
| 2026-04-23 01:32 | 33.94311 | -118.34787 | 714 ft | 137 kts | 264° |
| 2026-04-23 01:32 | 33.94198 | -118.35890 | 530 ft | 129 kts | 264° |
| 2026-04-23 01:33 | 33.94081 | -118.36957 | 411 ft | 129 kts | 266° |
| 2026-04-23 01:33 | 33.93991 | -118.38007 | 209 ft | 124 kts | 261° |
| 2026-04-23 01:33 | 33.93882 | -118.39014 | 123 ft | 110 kts | 262° |
| 2026-04-23 01:33 | 33.93819 | -118.39612 | 125 ft | 38 kts | 263° |
| 2026-04-23 01:34 | 33.93808 | -118.39801 | 126 ft | 19 kts | 273° |
| 2026-04-23 01:34 | 33.93845 | -118.39943 | 126 ft | 14 kts | 302° |
| 2026-04-23 01:34 | 33.93891 | -118.40025 | 125 ft | 13 kts | 308° |
| 2026-04-23 01:34 | 33.93976 | -118.40060 | 124 ft | 15 kts | 352° |
| 2026-04-23 01:35 | 33.94052 | -118.40071 | 124 ft | 3 kts | 354° |
| 2026-04-23 01:35 | 33.94069 | -118.40051 | 125 ft | 5 kts | 78° |
| 2026-04-23 01:35 | 33.94069 | -118.40014 | 126 ft | 0 kts | 83° |